createdAt,value
2023-02-19T00:00:16.456Z,33.63
2023-02-19T00:05:08.245Z,41.05
2023-02-19T00:09:59.977Z,39.85
2023-02-19T00:14:51.788Z,38.97
2023-02-19T00:19:43.570Z,39.67
2023-02-19T00:24:35.298Z,38.08
2023-02-19T00:29:27.781Z,42.00
2023-02-19T00:34:19.614Z,38.40
2023-02-19T00:39:15.944Z,48.72
2023-02-19T00:44:10.355Z,43.22
2023-02-19T00:49:03.128Z,36.33
2023-02-19T00:53:55.038Z,38.53
2023-02-19T00:58:47.448Z,35.90
2023-02-19T01:03:40.418Z,34.40
2023-02-19T01:08:32.824Z,39.78
2023-02-19T01:13:26.774Z,37.17
2023-02-19T01:18:18.594Z,36.03
2023-02-19T01:23:11.906Z,38.20
2023-02-19T01:28:03.841Z,39.50
2023-02-19T01:32:55.569Z,38.22
2023-02-19T01:37:47.288Z,40.17
2023-02-19T01:42:44.040Z,42.05
2023-02-19T01:47:35.809Z,42.67
2023-02-19T01:52:34.582Z,40.78
2023-02-19T01:57:30.725Z,43.30
2023-02-19T02:02:25.163Z,38.65
2023-02-19T02:07:36.012Z,38.40
2023-02-19T02:12:27.802Z,36.38
2023-02-19T02:17:30.520Z,40.00
2023-02-19T02:22:36.658Z,36.00
2023-02-19T02:28:06.836Z,29.30
2023-02-19T02:33:09.241Z,30.27
2023-02-19T02:38:08.150Z,36.33
2023-02-19T02:43:01.219Z,32.42
2023-02-19T02:47:55.364Z,30.60
2023-02-19T02:53:10.782Z,36.85
2023-02-19T02:58:03.355Z,28.42
2023-02-19T03:02:56.716Z,26.60
2023-02-19T03:07:59.551Z,26.83
2023-02-19T03:13:13.403Z,26.13
2023-02-19T03:18:27.568Z,27.75
2023-02-19T03:23:43.311Z,28.00
2023-02-19T03:28:57.345Z,24.55
2023-02-19T03:33:54.795Z,26.08
2023-02-19T03:38:57.116Z,30.80
2023-02-19T03:44:01.810Z,35.03
2023-02-19T03:48:59.237Z,26.30
2023-02-19T03:54:09.376Z,27.20
2023-02-19T03:59:11.920Z,32.05
2023-02-19T04:04:18.585Z,34.25
2023-02-19T04:09:13.234Z,26.33
2023-02-19T04:14:30.562Z,30.55
2023-02-19T04:19:26.098Z,28.00
2023-02-19T04:24:30.090Z,27.95
2023-02-19T04:29:21.962Z,32.10
2023-02-19T04:34:13.698Z,37.33
2023-02-19T04:39:05.469Z,36.72
2023-02-19T04:43:57.229Z,32.72
2023-02-19T04:48:49.124Z,33.53
2023-02-19T04:53:40.965Z,27.58
2023-02-19T04:58:32.718Z,32.03
2023-02-19T05:03:24.445Z,28.15
2023-02-19T05:08:16.263Z,35.75
2023-02-19T05:13:08.171Z,36.42
2023-02-19T05:18:00.125Z,39.90
2023-02-19T05:22:51.880Z,35.97
2023-02-19T05:27:43.974Z,32.60
2023-02-19T05:32:36.409Z,36.63
2023-02-19T05:37:28.168Z,37.60
2023-02-19T05:42:20.140Z,35.83
2023-02-19T05:47:11.900Z,33.00
2023-02-19T05:52:03.901Z,39.63
2023-02-19T05:56:56.070Z,37.75
2023-02-19T06:01:49.582Z,40.33
2023-02-19T06:06:42.419Z,37.45
2023-02-19T06:11:35.083Z,34.22
2023-02-19T06:16:27.132Z,33.65
2023-02-19T06:21:19.701Z,33.25
2023-02-19T06:26:12.605Z,35.05
2023-02-19T06:31:05.745Z,42.95
2023-02-19T06:36:03.023Z,36.00
2023-02-19T06:40:55.668Z,36.88
2023-02-19T06:45:47.489Z,37.25
2023-02-19T06:50:39.217Z,34.30
2023-02-19T06:55:31.102Z,39.17
2023-02-19T07:00:23.057Z,37.20
2023-02-19T07:05:14.821Z,36.30
2023-02-19T07:10:06.754Z,37.75
2023-02-19T07:14:58.516Z,38.55
2023-02-19T07:19:50.245Z,32.33
2023-02-19T07:24:41.994Z,33.00
2023-02-19T07:29:33.784Z,31.67
2023-02-19T07:34:25.597Z,28.88
2023-02-19T07:39:17.401Z,37.22
2023-02-19T07:44:09.196Z,34.33
2023-02-19T07:49:01.018Z,34.22
2023-02-19T07:53:52.840Z,32.70
2023-02-19T07:58:46.357Z,32.53
2023-02-19T08:03:39.110Z,39.03
2023-02-19T08:08:30.982Z,36.08
2023-02-19T08:13:23.624Z,43.47
2023-02-19T08:18:16.692Z,46.08
2023-02-19T08:23:08.516Z,43.03
2023-02-19T08:28:03.291Z,36.33
2023-02-19T08:32:55.510Z,39.47
2023-02-19T08:37:47.239Z,35.13
2023-02-19T08:42:39.507Z,38.00
2023-02-19T08:47:31.308Z,42.80
2023-02-19T08:52:23.045Z,38.67
2023-02-19T08:57:14.780Z,40.65
2023-02-19T09:02:06.676Z,39.65
2023-02-19T09:06:59.139Z,34.45
2023-02-19T09:11:50.976Z,33.38
2023-02-19T09:16:42.819Z,39.85
2023-02-19T09:21:34.680Z,33.38
2023-02-19T09:26:26.450Z,39.90
2023-02-19T09:31:18.485Z,35.67
2023-02-19T09:36:10.921Z,33.83
2023-02-19T09:41:29.066Z,33.60
2023-02-19T09:46:32.546Z,36.75
2023-02-19T09:51:28.775Z,35.58
2023-02-19T09:56:20.618Z,42.13
2023-02-19T10:01:13.614Z,40.95
2023-02-19T10:06:11.256Z,35.38
2023-02-19T10:11:04.823Z,41.63
2023-02-19T10:15:58.306Z,33.08
2023-02-19T10:20:51.521Z,33.35
2023-02-19T10:25:47.759Z,35.10
2023-02-19T10:30:39.649Z,33.78
2023-02-19T10:35:36.209Z,30.08
2023-02-19T10:40:29.235Z,26.92
2023-02-19T10:45:30.208Z,32.72
2023-02-19T10:50:25.622Z,33.28
2023-02-19T10:55:23.589Z,30.45
2023-02-19T11:00:15.358Z,32.20
2023-02-19T11:05:12.182Z,35.15
2023-02-19T11:10:07.246Z,38.65
2023-02-19T11:15:13.521Z,35.95
2023-02-19T11:20:15.976Z,34.15
2023-02-19T11:25:10.537Z,33.22
2023-02-19T11:30:33.888Z,34.40
2023-02-19T11:35:27.084Z,35.17
2023-02-19T11:40:18.944Z,35.17
2023-02-19T11:45:18.142Z,29.27
2023-02-19T11:50:22.817Z,29.70
2023-02-19T11:55:36.114Z,31.17
2023-02-19T12:00:31.828Z,34.28
2023-02-19T12:05:27.071Z,30.45
2023-02-19T12:10:43.618Z,33.08
2023-02-19T12:15:45.643Z,27.70
2023-02-19T12:20:46.177Z,26.45
2023-02-19T12:25:59.087Z,31.92
2023-02-19T12:31:02.630Z,25.48
2023-02-19T12:36:04.242Z,31.85
2023-02-19T12:40:55.958Z,25.20
2023-02-19T12:46:14.546Z,31.20
2023-02-19T12:51:21.464Z,29.10
2023-02-19T12:56:21.016Z,27.73
2023-02-19T13:01:18.306Z,30.98
2023-02-19T13:06:16.440Z,32.58
2023-02-19T13:11:30.127Z,33.70
2023-02-19T13:16:23.558Z,28.65
2023-02-19T13:21:37.184Z,33.67
2023-02-19T13:27:10.861Z,28.88
2023-02-19T13:32:02.664Z,32.63
2023-02-19T13:36:55.373Z,29.67
2023-02-19T13:41:53.439Z,29.33
2023-02-19T13:46:47.107Z,28.85
2023-02-19T13:51:46.938Z,24.25
2023-02-19T13:56:39.876Z,33.83
2023-02-19T14:01:52.948Z,29.83
2023-02-19T14:07:03.390Z,31.90
2023-02-19T14:12:15.422Z,30.58
2023-02-19T14:17:10.656Z,27.48
2023-02-19T14:22:02.449Z,29.67
2023-02-19T14:26:57.114Z,36.05
2023-02-19T14:31:50.584Z,34.50
2023-02-19T14:37:01.687Z,30.75
2023-02-19T14:41:58.525Z,34.22
2023-02-19T14:47:14.641Z,35.42
2023-02-19T14:52:14.333Z,34.30
2023-02-19T14:57:13.697Z,31.08
2023-02-19T15:02:17.405Z,34.70
2023-02-19T15:07:16.746Z,33.28
2023-02-19T15:12:24.334Z,32.28
2023-02-19T15:17:29.378Z,33.10
2023-02-19T15:22:24.872Z,33.50
2023-02-19T15:27:22.727Z,33.03
2023-02-19T15:32:22.045Z,30.57
2023-02-19T15:37:14.588Z,31.55
2023-02-19T15:42:08.002Z,32.67
2023-02-19T15:47:07.585Z,30.83
2023-02-19T15:52:08.982Z,33.92
2023-02-19T15:57:10.143Z,33.53
2023-02-19T16:02:03.953Z,34.35
2023-02-19T16:07:02.027Z,35.70
2023-02-19T16:11:56.503Z,36.20
2023-02-19T16:16:50.845Z,33.35
2023-02-19T16:21:43.876Z,40.17
2023-02-19T16:26:43.942Z,35.33
2023-02-19T16:31:35.758Z,35.75
2023-02-19T16:36:33.520Z,33.45
2023-02-19T16:41:25.340Z,38.13
2023-02-19T16:46:17.288Z,35.15
2023-02-19T16:51:24.453Z,37.67
2023-02-19T16:56:23.014Z,38.65
2023-02-19T17:06:07.320Z,33.33
2023-02-19T17:10:59.392Z,35.50
2023-02-19T17:15:51.161Z,34.63
2023-02-19T17:20:48.584Z,33.88
2023-02-19T17:25:40.305Z,32.65
2023-02-19T17:30:33.276Z,39.65
2023-02-19T17:35:25.318Z,32.38
2023-02-19T17:40:33.510Z,34.05
2023-02-19T17:45:25.615Z,37.97
2023-02-19T17:50:20.419Z,43.45
2023-02-19T17:55:15.295Z,44.42
2023-02-19T18:00:07.784Z,41.38
2023-02-19T18:05:04.259Z,43.97
2023-02-19T18:09:56.004Z,40.05
2023-02-19T18:14:47.859Z,42.72
2023-02-19T18:19:39.618Z,49.83
2023-02-19T18:24:31.354Z,44.83
2023-02-19T18:29:24.500Z,48.53
2023-02-19T18:34:18.938Z,40.70
2023-02-19T18:39:10.700Z,48.83
2023-02-19T18:44:02.472Z,41.97
2023-02-19T18:48:54.204Z,41.00
2023-02-19T18:53:46.287Z,50.35
2023-02-19T18:58:38.050Z,47.95
2023-02-19T19:03:31.062Z,50.00
2023-02-19T19:08:22.839Z,53.90
2023-02-19T19:13:14.609Z,71.07
2023-02-19T19:18:06.544Z,67.18
2023-02-19T19:22:58.742Z,58.13
2023-02-19T19:27:51.846Z,65.50
2023-02-19T19:32:43.652Z,63.00
2023-02-19T19:37:35.412Z,62.10
2023-02-19T19:42:27.309Z,54.60
2023-02-19T19:47:19.475Z,51.33
2023-02-19T19:52:11.234Z,55.45
2023-02-19T19:57:03.011Z,48.08
2023-02-19T20:01:57.337Z,59.17
2023-02-19T20:06:49.227Z,57.35
2023-02-19T20:11:49.156Z,66.75
2023-02-19T20:16:42.211Z,61.40
2023-02-19T20:21:35.630Z,62.70
2023-02-19T20:26:29.120Z,54.75
2023-02-19T20:31:21.160Z,54.05
2023-02-19T20:36:13.011Z,49.97
2023-02-19T20:41:05.009Z,54.40
2023-02-19T20:45:56.755Z,52.95
2023-02-19T20:50:48.642Z,50.45
2023-02-19T20:55:40.366Z,54.80
2023-02-19T21:00:32.205Z,57.78
2023-02-19T21:05:24.002Z,57.10
2023-02-19T21:10:15.944Z,54.55
2023-02-19T21:15:08.390Z,50.90
2023-02-19T21:20:00.147Z,53.63
2023-02-19T21:24:54.698Z,51.90
2023-02-19T21:29:47.494Z,51.25
2023-02-19T21:34:39.277Z,53.97
2023-02-19T21:39:32.478Z,58.88
2023-02-19T21:44:25.087Z,58.58
2023-02-19T21:49:17.794Z,55.05
2023-02-19T21:54:14.948Z,54.78
2023-02-19T21:59:06.747Z,53.90
2023-02-19T22:03:58.934Z,57.20
2023-02-19T22:08:50.763Z,60.20
2023-02-19T22:13:42.512Z,56.45
2023-02-19T22:18:34.742Z,63.80
2023-02-19T22:23:26.605Z,54.53
2023-02-19T22:28:18.426Z,58.80
2023-02-19T22:33:10.174Z,57.72
2023-02-19T22:38:02.349Z,54.15
2023-02-19T22:42:54.270Z,61.28
2023-02-19T22:47:47.111Z,60.60
2023-02-19T22:52:38.858Z,61.03
2023-02-19T22:57:30.669Z,66.22
2023-02-19T23:02:22.384Z,57.50
2023-02-19T23:07:14.273Z,74.75
2023-02-19T23:12:09.206Z,65.15
2023-02-19T23:17:01.206Z,65.03
2023-02-19T23:21:53.481Z,65.40
2023-02-19T23:26:51.372Z,69.93
2023-02-19T23:31:43.248Z,74.57
2023-02-19T23:36:40.796Z,73.10
2023-02-19T23:41:32.569Z,89.78
2023-02-19T23:46:24.305Z,88.10
2023-02-19T23:51:16.141Z,88.18
2023-02-19T23:56:08.160Z,85.78
